• Join FlightAware (Why Join?)
  • Login
  • US Flag 
12:01PM EDT


 

Airport Tracker/Info


-or-


 

Live Flight TrackerFlight Track Log ✈ ELT218 ✈ 05-Jul-2013 ✈ KDLH - KINL

Flight Track Log - Related Links

Times and Time Zones

All times are in EDT time to prevent confusion due to time zone crossing. See the ELT218 flight status page for this flight to view local times or setup timezone preferences in your user account.

Time Position Orientation Groundspeed Altitude Reporting Facility
EDT Latitude Longitude Course Direction KTS MPH feet Rate Location/Type
08:42AM 46.8947 -92.2894 336° Northwest 156 180 5,400  Level Minneapolis Center
08:43AM 46.9389 -92.3217 334° Northwest 167 192 7,200 1,740 Climbing Minneapolis Center
08:44AM 46.9847 -92.3517 336° Northwest 174 200 9,000 1,620 Climbing Minneapolis Center
08:45AM 47.0328 -92.3772 340° North 179 206 10,600 1,500 Climbing Minneapolis Center
08:46AM 47.1562 -92.4091 334° Northwest  Level FlightAware Approximate
08:46AM 47.0797 -92.4075 336° Northwest 183 211 12,100  Level Minneapolis Center
08:47AM 47.2104 -92.4458 336° Northwest  Level FlightAware Approximate
08:47AM 47.1275 -92.4372 337° Northwest 186 214 13,600  Level Minneapolis Center
08:48AM 47.1775 -92.4692 337° Northwest 192 221 14,800 1,200 Climbing Minneapolis Center
08:49AM 47.2275 -92.5025 336° Northwest 197 227 16,100 600 Climbing Minneapolis Center
08:50AM 47.2711 -92.5314 336° Northwest 206 237 16,100 -60 Level Minneapolis Center
08:51AM 47.3444 -92.5794 336° Northwest 235 270 16,000 -60 Descending Minneapolis Center
08:52AM 47.4158 -92.6261 336° Northwest 235 270 16,000  Level Minneapolis Center
08:53AM 47.4786 -92.6669 336° Northwest 243 280 16,000  Level Minneapolis Center
08:54AM 47.5444 -92.7100 336° Northwest 256 295 16,000  Level Minneapolis Center
08:55AM 47.6247 -92.7633 336° Northwest 263 303 16,000  Level Minneapolis Center
08:56AM 47.6911 -92.8092 335° Northwest 264 304 16,000  Level Minneapolis Center
08:57AM 47.7583 -92.8519 337° Northwest 265 305 16,000  Level Minneapolis Center
08:58AM 47.8258 -92.8933 338° Northwest 264 304 16,000 -480 Level Minneapolis Center
08:59AM 47.9061 -92.9442 337° Northwest 263 303 15,000 -1,320 Descending Minneapolis Center
09:00AM 47.9861 -92.9950 337° Northwest 262 302 13,300 -1,500 Descending Minneapolis Center
09:02AM 48.0642 -93.0456 337° Northwest 260 299 11,700 -1,320 Descending Minneapolis Center
09:03AM 48.1281 -93.0872 336° Northwest 256 295 10,400 -1,380 Descending Minneapolis Center
09:04AM 48.1922 -93.1278 337° Northwest 253 291 9,000 -1,200 Descending Minneapolis Center
09:05AM 48.2431 -93.1611 336° Northwest 252 290 8,000 -1,020 Descending Minneapolis Center